createdAt,value
2017-07-27T00:00:12.926Z,14.80
2017-07-27T00:02:39.236Z,15.13
2017-07-27T00:05:05.514Z,16.73
2017-07-27T00:07:32.524Z,17.70
2017-07-27T00:09:58.805Z,17.40
2017-07-27T00:12:25.054Z,19.73
2017-07-27T00:14:51.293Z,19.97
2017-07-27T00:17:17.594Z,20.57
2017-07-27T00:19:43.849Z,20.03
2017-07-27T00:22:10.125Z,21.33
2017-07-27T00:24:36.378Z,20.77
2017-07-27T00:27:02.667Z,19.17
2017-07-27T00:29:28.914Z,22.90
2017-07-27T00:31:55.269Z,19.60
2017-07-27T00:34:21.508Z,20.10
2017-07-27T00:36:47.830Z,20.47
2017-07-27T00:39:14.092Z,19.17
2017-07-27T00:41:40.381Z,20.20
2017-07-27T00:44:06.657Z,18.70
2017-07-27T00:46:32.905Z,18.87
2017-07-27T00:48:59.888Z,17.67
2017-07-27T00:51:26.118Z,17.10
2017-07-27T00:53:52.361Z,15.87
2017-07-27T00:56:18.609Z,15.73
2017-07-27T00:58:44.871Z,17.27
2017-07-27T01:01:11.121Z,15.50
2017-07-27T01:03:37.377Z,16.43
2017-07-27T01:06:03.626Z,15.50
2017-07-27T01:08:30.646Z,14.87
2017-07-27T01:10:56.869Z,15.07
2017-07-27T01:13:23.154Z,16.40
2017-07-27T01:15:49.508Z,15.43
2017-07-27T01:18:15.743Z,15.00
2017-07-27T01:20:41.995Z,15.43
2017-07-27T01:23:08.302Z,14.20
2017-07-27T01:25:34.545Z,15.07
2017-07-27T01:28:00.785Z,16.67
2017-07-27T01:30:27.060Z,15.90
2017-07-27T01:32:53.321Z,14.63
2017-07-27T01:35:19.670Z,14.10
2017-07-27T01:37:45.925Z,14.13
2017-07-27T01:40:12.213Z,14.67
2017-07-27T01:42:38.466Z,15.90
2017-07-27T01:45:05.477Z,13.00
2017-07-27T01:47:31.741Z,12.30
2017-07-27T01:49:58.721Z,11.77
2017-07-27T01:52:24.977Z,12.23
2017-07-27T01:54:51.213Z,11.17
2017-07-27T01:57:17.477Z,11.30
2017-07-27T01:59:43.729Z,12.13
2017-07-27T02:02:10.026Z,11.93
2017-07-27T02:04:36.266Z,12.50
2017-07-27T02:07:03.282Z,11.43
2017-07-27T02:09:29.606Z,11.27
2017-07-27T02:11:55.856Z,12.80
2017-07-27T02:14:22.825Z,13.37
2017-07-27T02:16:49.053Z,16.93
2017-07-27T02:19:15.802Z,17.87
2017-07-27T02:21:42.093Z,18.03
2017-07-27T02:24:08.361Z,12.17
2017-07-27T02:26:34.641Z,11.37
2017-07-27T02:29:01.005Z,14.07
2017-07-27T02:31:27.327Z,13.37
2017-07-27T02:33:53.663Z,15.17
2017-07-27T02:36:20.119Z,15.10
2017-07-27T02:38:46.370Z,16.30
2017-07-27T02:41:12.625Z,16.43
2017-07-27T02:43:38.942Z,15.63
2017-07-27T02:46:05.985Z,18.77
2017-07-27T02:48:33.078Z,15.00
2017-07-27T02:50:59.402Z,15.03
2017-07-27T02:53:25.666Z,15.57
2017-07-27T02:55:51.914Z,14.53
2017-07-27T02:58:18.270Z,13.97
2017-07-27T03:00:45.275Z,12.20
2017-07-27T03:03:11.561Z,12.40
2017-07-27T03:05:37.828Z,11.30
2017-07-27T03:08:04.083Z,10.67
2017-07-27T03:10:31.092Z,10.07
2017-07-27T03:12:57.363Z,10.27
2017-07-27T03:15:24.425Z,9.67
2017-07-27T03:17:51.427Z,7.43
2017-07-27T03:20:18.982Z,8.07
2017-07-27T03:22:45.285Z,9.20
2017-07-27T03:25:11.535Z,8.00
2017-07-27T03:27:37.785Z,8.13
2017-07-27T03:30:04.169Z,8.73
2017-07-27T03:32:30.419Z,6.27
2017-07-27T03:34:56.697Z,7.40
2017-07-27T03:37:22.945Z,6.70
2017-07-27T03:39:49.248Z,6.83
2017-07-27T03:42:16.267Z,7.60
2017-07-27T03:44:42.534Z,8.13
2017-07-27T03:47:08.798Z,6.70
2017-07-27T03:49:35.098Z,7.87
2017-07-27T03:52:01.405Z,6.17
2017-07-27T03:54:27.666Z,7.73
2017-07-27T03:56:53.900Z,7.17
2017-07-27T03:59:20.160Z,7.03
2017-07-27T04:01:47.165Z,6.57
2017-07-27T04:04:13.401Z,7.07
2017-07-27T04:06:39.659Z,8.83
2017-07-27T04:09:05.915Z,7.60
2017-07-27T04:11:32.902Z,7.87
2017-07-27T04:13:59.136Z,7.83
2017-07-27T04:16:25.370Z,7.37
2017-07-27T04:18:51.699Z,6.97
2017-07-27T04:21:17.953Z,8.03
2017-07-27T04:23:44.241Z,6.40
2017-07-27T04:26:10.496Z,6.30
2017-07-27T04:28:36.742Z,6.80
2017-07-27T04:31:02.989Z,7.20
2017-07-27T04:33:29.238Z,7.63
2017-07-27T04:35:55.485Z,7.90
2017-07-27T04:38:21.727Z,6.93
2017-07-27T04:40:47.962Z,6.90
2017-07-27T04:43:14.190Z,6.50
2017-07-27T04:45:40.442Z,7.90
2017-07-27T04:48:06.677Z,7.80
2017-07-27T04:50:33.654Z,6.87
2017-07-27T04:53:00.140Z,8.00
2017-07-27T04:55:27.325Z,6.83
2017-07-27T04:57:58.715Z,7.33
2017-07-27T05:00:25.328Z,9.30
2017-07-27T05:02:51.909Z,8.70
2017-07-27T05:05:19.120Z,7.00
2017-07-27T05:07:45.616Z,6.60
2017-07-27T05:10:12.099Z,5.97
2017-07-27T05:12:38.635Z,6.50
2017-07-27T05:15:05.142Z,7.73
2017-07-27T05:17:31.677Z,6.77
2017-07-27T05:19:58.210Z,7.57
2017-07-27T05:22:24.689Z,8.10
2017-07-27T05:24:51.230Z,8.67
2017-07-27T05:27:17.688Z,9.00
2017-07-27T05:29:44.173Z,8.40
2017-07-27T05:32:10.673Z,8.47
2017-07-27T05:34:37.966Z,8.27
2017-07-27T05:37:04.382Z,10.20
2017-07-27T05:39:31.609Z,10.30
2017-07-27T05:41:58.189Z,9.10
2017-07-27T05:44:24.673Z,9.20
2017-07-27T05:46:51.146Z,10.03
2017-07-27T05:49:17.594Z,8.20
2017-07-27T05:51:44.066Z,9.43
2017-07-27T05:54:10.592Z,8.27
2017-07-27T05:56:37.099Z,8.70
2017-07-27T05:59:03.569Z,7.40
2017-07-27T06:01:30.089Z,8.10
2017-07-27T06:03:56.696Z,7.80
2017-07-27T06:06:23.886Z,10.33
2017-07-27T06:08:50.486Z,9.20
2017-07-27T06:11:16.944Z,10.63
2017-07-27T06:13:43.451Z,8.80
2017-07-27T06:16:09.930Z,9.60
2017-07-27T06:18:36.415Z,9.73
2017-07-27T06:21:02.924Z,10.20
2017-07-27T06:23:29.493Z,9.70
2017-07-27T06:25:55.970Z,11.13
2017-07-27T06:28:22.553Z,10.87
2017-07-27T06:30:49.040Z,10.27
2017-07-27T06:33:15.497Z,10.60
2017-07-27T06:35:42.839Z,10.30
2017-07-27T06:38:09.393Z,11.00
2017-07-27T06:40:35.907Z,10.00
2017-07-27T06:43:02.382Z,17.77
2017-07-27T06:45:28.849Z,10.13
2017-07-27T06:47:55.314Z,9.57
2017-07-27T06:50:21.796Z,8.73
2017-07-27T06:52:48.241Z,10.17
2017-07-27T06:55:14.749Z,8.53
2017-07-27T06:57:41.257Z,7.67
2017-07-27T07:00:07.726Z,7.77
2017-07-27T07:02:34.226Z,8.17
2017-07-27T07:05:00.731Z,8.50
2017-07-27T07:07:27.214Z,9.90
2017-07-27T07:09:53.703Z,9.57
2017-07-27T07:12:20.205Z,8.90
2017-07-27T07:14:46.736Z,7.60
2017-07-27T07:17:13.351Z,9.20
2017-07-27T07:19:39.849Z,9.03
2017-07-27T07:22:06.386Z,8.60
2017-07-27T07:24:32.950Z,8.10
2017-07-27T07:26:59.562Z,7.10
2017-07-27T07:29:26.106Z,7.70
2017-07-27T07:31:52.676Z,6.73
2017-07-27T07:34:19.306Z,7.33
2017-07-27T07:36:45.794Z,7.10
2017-07-27T07:39:12.359Z,7.50
2017-07-27T07:41:38.977Z,7.27
2017-07-27T07:44:05.526Z,7.47
2017-07-27T07:46:32.030Z,8.30
2017-07-27T07:48:58.581Z,5.80
2017-07-27T07:51:25.820Z,9.07
2017-07-27T07:53:52.350Z,3.80
2017-07-27T07:56:19.763Z,3.87
2017-07-27T07:58:46.261Z,4.43
2017-07-27T08:01:12.941Z,4.40
2017-07-27T08:03:39.394Z,4.77
2017-07-27T08:06:06.666Z,4.20
2017-07-27T08:08:55.971Z,4.87
2017-07-27T08:11:22.594Z,3.97
2017-07-27T08:13:49.066Z,4.03
2017-07-27T08:16:15.723Z,3.67
2017-07-27T08:18:42.954Z,3.33
2017-07-27T08:21:09.461Z,4.87
2017-07-27T08:23:36.047Z,3.43
2017-07-27T08:26:02.487Z,3.73
2017-07-27T08:28:29.721Z,3.90
2017-07-27T08:30:56.207Z,3.57
2017-07-27T08:33:22.629Z,4.57
2017-07-27T08:35:49.127Z,4.07
2017-07-27T08:38:15.661Z,3.47
2017-07-27T08:40:42.145Z,3.50
2017-07-27T08:43:08.627Z,4.17
2017-07-27T08:45:35.098Z,3.63
2017-07-27T08:48:01.702Z,3.70
2017-07-27T08:50:28.237Z,3.90
2017-07-27T08:52:54.728Z,4.20
2017-07-27T08:55:21.195Z,5.13
2017-07-27T08:57:48.587Z,6.47
2017-07-27T09:00:15.752Z,4.50
2017-07-27T09:02:42.200Z,5.20
2017-07-27T09:05:08.691Z,5.70
2017-07-27T09:07:35.202Z,5.77
2017-07-27T09:10:01.734Z,7.73
2017-07-27T09:12:28.217Z,5.63
2017-07-27T09:14:54.738Z,5.90
2017-07-27T09:17:21.206Z,6.70
2017-07-27T09:19:47.677Z,7.07
2017-07-27T09:22:14.908Z,6.57
2017-07-27T09:24:41.397Z,5.93
2017-07-27T09:27:07.898Z,4.67
2017-07-27T09:29:35.109Z,4.17
2017-07-27T09:32:01.710Z,5.77
2017-07-27T09:34:28.188Z,3.53
2017-07-27T09:36:54.686Z,6.90
2017-07-27T09:39:21.197Z,3.77
2017-07-27T09:41:47.697Z,2.97
2017-07-27T09:44:14.166Z,3.10
2017-07-27T09:46:40.666Z,2.90
2017-07-27T09:49:07.151Z,3.40
2017-07-27T09:51:33.651Z,3.53
2017-07-27T09:54:00.885Z,3.43
2017-07-27T09:56:27.382Z,3.63
2017-07-27T09:58:53.875Z,2.87
2017-07-27T10:01:20.382Z,2.07
2017-07-27T10:03:47.626Z,2.37
2017-07-27T10:06:14.838Z,1.93
2017-07-27T10:08:41.385Z,2.20
2017-07-27T10:11:07.870Z,2.23
2017-07-27T10:13:34.325Z,2.20
2017-07-27T10:16:00.829Z,3.57
2017-07-27T10:18:27.339Z,2.17
2017-07-27T10:20:54.615Z,2.17
2017-07-27T10:23:21.089Z,4.90
2017-07-27T10:25:47.568Z,2.90
2017-07-27T10:28:14.074Z,5.03
2017-07-27T10:30:40.611Z,2.00
2017-07-27T10:33:07.250Z,3.57
2017-07-27T10:35:33.825Z,2.87
2017-07-27T10:38:07.284Z,2.30
2017-07-27T10:40:37.854Z,2.67
2017-07-27T10:43:05.037Z,5.17
2017-07-27T10:45:31.507Z,3.70
2017-07-27T10:47:58.726Z,4.00
2017-07-27T10:50:25.193Z,6.23
2017-07-27T10:52:51.634Z,3.43
2017-07-27T10:55:18.149Z,3.23
2017-07-27T10:57:44.617Z,2.90
2017-07-27T11:00:11.119Z,5.90
2017-07-27T11:02:37.572Z,3.23
2017-07-27T11:05:04.183Z,3.97
2017-07-27T11:07:30.709Z,4.10
2017-07-27T11:09:57.272Z,4.50
2017-07-27T11:12:24.495Z,4.53
2017-07-27T11:14:50.981Z,5.30
2017-07-27T11:17:17.495Z,6.10
2017-07-27T11:19:44.002Z,3.50
2017-07-27T11:22:10.490Z,4.83
2017-07-27T11:24:36.979Z,4.20
2017-07-27T11:27:03.462Z,4.10
2017-07-27T11:29:29.912Z,7.60
2017-07-27T11:31:56.454Z,4.00
2017-07-27T11:34:22.945Z,4.73
2017-07-27T11:36:49.430Z,3.50
2017-07-27T11:39:15.916Z,6.07
2017-07-27T11:41:42.424Z,3.63
2017-07-27T11:44:09.148Z,4.40
2017-07-27T11:46:36.408Z,3.30
2017-07-27T11:49:02.952Z,3.20
2017-07-27T11:51:29.430Z,6.00
2017-07-27T11:53:55.954Z,4.10
2017-07-27T11:56:22.411Z,8.80
2017-07-27T11:58:48.910Z,4.83
2017-07-27T12:01:15.440Z,4.33
2017-07-27T12:03:41.893Z,4.60
2017-07-27T12:06:08.393Z,3.60
2017-07-27T12:08:40.879Z,3.73
2017-07-27T12:11:07.409Z,3.20
2017-07-27T12:13:33.880Z,4.33
2017-07-27T12:16:00.292Z,3.77
2017-07-27T12:18:26.875Z,3.60
2017-07-27T12:20:53.370Z,4.50
2017-07-27T12:23:19.825Z,5.20
2017-07-27T12:25:46.290Z,3.40
2017-07-27T12:28:12.783Z,8.47
2017-07-27T12:30:39.333Z,3.87
2017-07-27T12:33:05.872Z,6.70
2017-07-27T12:35:33.095Z,5.80
2017-07-27T12:37:59.657Z,3.73
2017-07-27T12:40:26.126Z,6.43
2017-07-27T12:42:52.725Z,3.80
2017-07-27T12:45:19.949Z,4.73
2017-07-27T12:47:46.496Z,4.80
2017-07-27T12:50:13.048Z,5.87
2017-07-27T12:52:39.585Z,9.07
2017-07-27T12:55:06.795Z,4.50
2017-07-27T12:57:33.281Z,5.03
2017-07-27T13:00:00.538Z,9.70
2017-07-27T13:02:27.061Z,5.43
2017-07-27T13:04:54.273Z,3.90
2017-07-27T13:07:21.608Z,5.23
2017-07-27T13:09:48.130Z,6.23
2017-07-27T13:12:14.604Z,7.83
2017-07-27T13:14:41.118Z,6.30
2017-07-27T13:17:07.657Z,5.67
2017-07-27T13:19:34.137Z,6.10
2017-07-27T13:22:01.345Z,6.03
2017-07-27T13:24:27.837Z,4.07
2017-07-27T13:26:55.068Z,5.77
2017-07-27T13:29:21.588Z,8.17
2017-07-27T13:31:48.081Z,5.90
2017-07-27T13:34:14.602Z,7.67
2017-07-27T13:36:41.095Z,4.10
2017-07-27T13:39:07.638Z,4.97
2017-07-27T13:41:34.868Z,5.67
2017-07-27T13:44:01.458Z,10.47
2017-07-27T13:46:28.006Z,5.30
2017-07-27T13:48:54.530Z,5.43
2017-07-27T13:51:21.046Z,6.60
2017-07-27T13:53:47.549Z,7.10
2017-07-27T13:56:13.832Z,6.47
2017-07-27T13:58:40.094Z,6.17
2017-07-27T14:01:06.363Z,5.77
2017-07-27T14:03:32.624Z,6.30
2017-07-27T14:05:59.052Z,6.37
2017-07-27T14:08:25.309Z,8.03
2017-07-27T14:10:51.577Z,3.77
2017-07-27T14:13:17.936Z,5.63
2017-07-27T14:15:44.182Z,4.27
2017-07-27T14:18:10.515Z,4.30
2017-07-27T14:20:36.819Z,5.30
2017-07-27T14:23:03.083Z,8.47
2017-07-27T14:25:29.330Z,5.13
2017-07-27T14:27:55.580Z,7.70
2017-07-27T14:30:21.831Z,4.07
2017-07-27T14:32:48.122Z,6.73
2017-07-27T14:35:15.104Z,5.57
2017-07-27T14:37:41.416Z,4.73
2017-07-27T14:40:07.671Z,3.03
2017-07-27T14:42:33.949Z,4.70
2017-07-27T14:45:00.202Z,4.73
2017-07-27T14:47:26.471Z,5.40
2017-07-27T14:49:52.726Z,6.73
2017-07-27T14:52:19.718Z,8.17
2017-07-27T14:54:45.976Z,6.17
2017-07-27T14:57:12.257Z,3.93
2017-07-27T14:59:38.506Z,6.23
2017-07-27T15:02:04.761Z,5.00
2017-07-27T15:04:31.243Z,5.83
2017-07-27T15:06:57.521Z,4.07
2017-07-27T15:09:23.786Z,6.73
2017-07-27T15:11:50.046Z,4.20
2017-07-27T15:14:16.326Z,5.30
2017-07-27T15:16:43.317Z,9.10
2017-07-27T15:19:09.579Z,7.63
2017-07-27T15:21:35.856Z,4.40
2017-07-27T15:24:02.122Z,8.03
2017-07-27T15:26:29.166Z,3.90
2017-07-27T15:28:55.461Z,5.93
2017-07-27T15:31:21.735Z,5.43
2017-07-27T15:33:48.017Z,12.17
2017-07-27T15:36:14.314Z,6.53
2017-07-27T15:38:41.307Z,7.60
2017-07-27T15:41:07.644Z,5.93
2017-07-27T15:43:33.916Z,5.87
2017-07-27T15:46:00.914Z,8.70
2017-07-27T15:48:27.181Z,6.87
2017-07-27T15:50:53.466Z,6.53
2017-07-27T15:53:19.718Z,8.30
2017-07-27T15:55:45.970Z,6.83
2017-07-27T15:58:12.971Z,5.47
2017-07-27T16:00:39.267Z,7.60
2017-07-27T16:03:05.598Z,9.90
2017-07-27T16:05:31.863Z,4.43
2017-07-27T16:07:58.121Z,6.57
2017-07-27T16:10:24.369Z,5.30
2017-07-27T16:12:50.655Z,5.83
2017-07-27T16:15:16.888Z,7.30
2017-07-27T16:17:43.135Z,6.50
2017-07-27T16:20:09.402Z,5.80
2017-07-27T16:22:35.652Z,4.53
2017-07-27T16:25:01.928Z,5.20
2017-07-27T16:27:28.181Z,5.47
2017-07-27T16:29:54.663Z,6.03
2017-07-27T16:32:21.899Z,4.97
2017-07-27T16:34:48.395Z,7.37
2017-07-27T16:37:14.936Z,5.33
2017-07-27T16:39:42.222Z,5.20
2017-07-27T16:42:08.687Z,5.97
2017-07-27T16:44:35.197Z,8.83
2017-07-27T16:47:02.405Z,7.97
2017-07-27T16:49:28.882Z,10.57
2017-07-27T16:51:56.105Z,6.00
2017-07-27T16:54:22.586Z,7.30
2017-07-27T16:56:49.797Z,6.93
2017-07-27T16:59:16.278Z,5.97
2017-07-27T17:01:42.898Z,12.07
2017-07-27T17:04:09.378Z,6.53
2017-07-27T17:06:35.837Z,8.03
2017-07-27T17:09:02.350Z,8.43
2017-07-27T17:11:28.859Z,7.80
2017-07-27T17:13:55.320Z,6.43
2017-07-27T17:16:22.594Z,7.93
2017-07-27T17:18:49.077Z,8.77
2017-07-27T17:21:15.564Z,7.70
2017-07-27T17:23:42.122Z,7.20
2017-07-27T17:26:08.623Z,4.67
2017-07-27T17:28:35.111Z,8.40
2017-07-27T17:31:01.598Z,4.53
2017-07-27T17:33:28.085Z,6.10
2017-07-27T17:35:54.536Z,5.43
2017-07-27T17:38:21.021Z,7.77
2017-07-27T17:40:48.215Z,6.37
2017-07-27T17:43:14.677Z,7.77
2017-07-27T17:45:41.118Z,5.87
2017-07-27T17:48:07.608Z,9.30
2017-07-27T17:50:34.179Z,7.20
2017-07-27T17:53:00.632Z,5.50
2017-07-27T17:55:27.105Z,8.47
2017-07-27T17:57:53.606Z,6.20
2017-07-27T18:00:20.255Z,7.80
2017-07-27T18:02:46.850Z,9.27
2017-07-27T18:05:13.408Z,7.23
2017-07-27T18:07:40.292Z,6.10
2017-07-27T18:10:06.929Z,6.80
2017-07-27T18:12:33.423Z,6.57
2017-07-27T18:14:59.894Z,7.00
2017-07-27T18:17:26.436Z,6.30
2017-07-27T18:19:52.928Z,9.00
2017-07-27T18:22:19.473Z,8.97
2017-07-27T18:24:45.966Z,7.40
2017-07-27T18:27:12.491Z,8.17
2017-07-27T18:29:39.021Z,6.07
2017-07-27T18:32:05.515Z,6.53
2017-07-27T18:34:32.206Z,4.80
2017-07-27T18:36:58.713Z,6.80
2017-07-27T18:39:25.269Z,5.37
2017-07-27T18:41:51.840Z,7.03
2017-07-27T18:44:18.314Z,10.40
2017-07-27T18:46:44.871Z,8.40
2017-07-27T18:49:11.430Z,10.57
2017-07-27T18:51:38.092Z,7.77
2017-07-27T18:54:04.649Z,6.67
2017-07-27T18:56:31.147Z,7.03
2017-07-27T18:58:57.672Z,6.43
2017-07-27T19:01:24.275Z,8.10
2017-07-27T19:03:50.778Z,5.10
2017-07-27T19:06:17.351Z,11.83
2017-07-27T19:08:43.811Z,5.80
2017-07-27T19:11:10.324Z,9.00
2017-07-27T19:13:37.582Z,7.47
2017-07-27T19:16:04.862Z,10.50
2017-07-27T19:18:31.441Z,8.67
2017-07-27T19:20:57.939Z,5.10
2017-07-27T19:23:24.409Z,6.10
2017-07-27T19:25:50.901Z,5.70
2017-07-27T19:28:17.384Z,9.63
2017-07-27T19:30:43.886Z,8.60
2017-07-27T19:33:10.768Z,6.77
2017-07-27T19:35:37.443Z,9.97
2017-07-27T19:38:03.942Z,8.40
2017-07-27T19:40:30.514Z,8.20
2017-07-27T19:42:57.017Z,13.93
2017-07-27T19:45:23.670Z,8.43
2017-07-27T19:47:50.230Z,10.10
2017-07-27T19:50:16.693Z,11.57
2017-07-27T19:52:43.183Z,10.43
2017-07-27T19:55:09.665Z,6.40
2017-07-27T19:57:36.203Z,7.70
2017-07-27T20:00:02.760Z,5.80
2017-07-27T20:02:29.285Z,8.90
2017-07-27T20:04:55.812Z,7.23
2017-07-27T20:07:22.354Z,8.23
2017-07-27T20:09:48.879Z,9.60
2017-07-27T20:12:15.351Z,9.50
2017-07-27T20:14:41.857Z,7.30
2017-07-27T20:17:08.305Z,7.37
2017-07-27T20:19:35.646Z,7.17
2017-07-27T20:22:03.030Z,9.97
2017-07-27T20:24:29.561Z,8.27
2017-07-27T20:26:56.445Z,8.23
2017-07-27T20:29:22.921Z,7.77
2017-07-27T20:31:49.420Z,9.17
2017-07-27T20:34:15.899Z,8.80
2017-07-27T20:36:42.443Z,6.03
2017-07-27T20:39:09.004Z,8.90
2017-07-27T20:41:35.638Z,9.23
2017-07-27T20:44:02.161Z,5.70
2017-07-27T20:46:28.663Z,10.43
2017-07-27T20:48:55.129Z,9.80
2017-07-27T20:51:21.673Z,9.63
2017-07-27T20:53:48.231Z,9.37
2017-07-27T20:56:15.453Z,12.93
2017-07-27T20:58:41.956Z,8.30
2017-07-27T21:01:08.552Z,11.07
2017-07-27T21:03:35.223Z,9.33
2017-07-27T21:06:03.157Z,8.00
2017-07-27T21:08:29.994Z,6.27
2017-07-27T21:10:57.215Z,9.70
2017-07-27T21:13:23.777Z,6.00
2017-07-27T21:15:50.250Z,9.13
2017-07-27T21:18:16.886Z,9.53
2017-07-27T21:20:44.170Z,5.80
2017-07-27T21:23:10.661Z,8.90
2017-07-27T21:25:37.144Z,6.00
2017-07-27T21:28:03.620Z,7.83
2017-07-27T21:30:30.870Z,9.10
2017-07-27T21:32:57.390Z,6.50
2017-07-27T21:35:24.620Z,9.53
2017-07-27T21:37:51.188Z,10.47
2017-07-27T21:40:18.413Z,10.10
2017-07-27T21:42:44.886Z,6.13
2017-07-27T21:45:11.390Z,6.17
2017-07-27T21:47:38.634Z,6.37
2017-07-27T21:50:05.190Z,7.13
2017-07-27T21:52:31.706Z,8.43
2017-07-27T21:54:58.958Z,6.23
2017-07-27T21:57:25.495Z,6.83
2017-07-27T21:59:52.058Z,7.10
2017-07-27T22:02:18.586Z,11.63
2017-07-27T22:04:45.121Z,9.60
2017-07-27T22:07:11.645Z,9.27
2017-07-27T22:09:38.876Z,7.80
2017-07-27T22:12:05.430Z,6.17
2017-07-27T22:14:31.971Z,11.40
2017-07-27T22:16:58.479Z,8.17
2017-07-27T22:19:24.966Z,12.73
2017-07-27T22:21:51.495Z,6.23
2017-07-27T22:24:18.098Z,7.80
2017-07-27T22:26:44.619Z,7.40
2017-07-27T22:29:11.863Z,8.30
2017-07-27T22:31:38.337Z,9.97
2017-07-27T22:34:05.002Z,6.20
2017-07-27T22:36:31.532Z,6.10
2017-07-27T22:38:58.069Z,9.10
2017-07-27T22:41:24.534Z,15.03
2017-07-27T22:43:51.097Z,11.27
2017-07-27T22:46:17.570Z,6.80
2017-07-27T22:48:44.058Z,11.43
2017-07-27T22:51:10.542Z,6.83
2017-07-27T22:53:37.092Z,6.67
2017-07-27T22:56:03.568Z,6.87
2017-07-27T22:58:30.121Z,8.70
2017-07-27T23:00:56.653Z,9.67
2017-07-27T23:03:23.259Z,8.80
2017-07-27T23:05:50.518Z,13.53
2017-07-27T23:08:17.025Z,8.70
2017-07-27T23:10:43.543Z,7.43
2017-07-27T23:19:09.325Z,7.60
2017-07-27T23:21:35.864Z,11.43
2017-07-27T23:24:02.381Z,10.67
2017-07-27T23:26:28.973Z,6.53
2017-07-27T23:28:55.448Z,8.40
2017-07-27T23:31:22.674Z,7.30
2017-07-27T23:33:49.221Z,9.00
2017-07-27T23:36:15.769Z,9.30
2017-07-27T23:38:42.260Z,9.97
2017-07-27T23:41:08.774Z,9.30
2017-07-27T23:43:35.373Z,8.60
2017-07-27T23:46:01.857Z,8.03
2017-07-27T23:48:28.390Z,8.60
2017-07-27T23:50:54.952Z,7.57
2017-07-27T23:53:21.458Z,8.67
2017-07-27T23:55:48.701Z,8.77
2017-07-27T23:58:15.267Z,9.00
